Hauptseite
METAR-TAF:

METAR-TAF

Flughäfen :

Flughafen Dakar-Léopold Sédar Senghor

Dakar, Senegal

Breite: 14-44N, Länge: 017-30W, Höhe: 27 m

Beobachtung

Neuester Wetterbericht von vor 1 Stunde und 7 Minuten, um 00:00 UTC
Wind 12 kt aus Nord
Temperatur 27°C
Luftfeuchtigkeit 84%
Luftdruck 1010 hPa
Sichtweite: 8000 m

METAR: GOOY 190000Z 36012KT 8000 NSC 27/24 Q1010

Zeit: 01:07 (01:07 UTC)

Prognose

Neuester Wetterbericht von vor 1 Stunde und 37 Minuten, um 23:30 UTC
Gültige Prognose vom 19 um 00 UTC bis 20 um 06 UTC
Wind 14 kt aus Nord
Sichtweite 10 km oder mehr
keine Wolken unter 1500 m und keine Kumulonimbus oder Gewitterwolken

TAF: GOOY 182330Z 1900/2006 36014KT CAVOK

Wetterbeobachtungen und Prognosen von mehr als 4000 Flughäfen (METAR und TAF Bericht).

Die verfügbaren Stationen werden durch gelbe und rote Markierungen auf der Karte dargestellt.

Führen Sie die Maus auf sie, um den Namen der Station zu sehen.

Darauf klicken, um die Beobachtung von Wetterbeobachtungen und Prognosen zu sehen.

Um die Karte zu ändern : klicken Sie auf den grünen Tasten mit einem schwarzen Kreuz Zum Vergrößern, auf den grünen Button mit einem Gedankenstrich zu verkleinern, oder auf die grünen Pfeile für benachbarte Karten.


METAR-TAF: